Time;durP1;ratioP1;P1;durP2;ratioP2;P2;SDS_P1;SDS_P2;PMS_P1;PMS_P2;Temp;Humidity;BMP_temperature;BMP_pressure;BME280_temperature;BME280_humidity;BME280_pressure;Samples;Min_cycle;Max_cycle;Signal;HPM_P1;HPM_P2
2023/10/21 00:02:14;;;;;;;13.73;4.95;;;;;;;18.27;68.13;96788.72;5110073;28;20323;-76
2023/10/21 00:04:40;;;;;;;12.63;5.88;;;;;;;18.30;68.21;96792.88;5110843;28;20055;-76
2023/10/21 00:07:07;;;;;;;14.93;5.78;;;;;;;18.30;67.92;96781.31;5111184;28;20043;-77
2023/10/21 00:09:34;;;;;;;13.20;5.38;;;;;;;18.28;67.91;96792.25;5109303;28;20042;-77
2023/10/21 00:12:01;;;;;;;19.13;5.90;;;;;;;18.27;68.12;96766.44;5109630;28;20047;-77
2023/10/21 00:14:29;;;;;;;13.35;5.53;;;;;;;18.27;67.96;96764.59;5110118;28;20048;-77
2023/10/21 00:16:55;;;;;;;17.35;6.28;;;;;;;16.29;67.90;96438.16;5110377;28;20055;-77
2023/10/21 00:19:22;;;;;;;15.07;5.55;;;;;;;18.25;67.85;96739.84;5110796;28;20098;-77
2023/10/21 00:21:49;;;;;;;17.25;7.38;;;;;;;18.24;68.10;96770.34;5110152;28;20028;-77
2023/10/21 00:24:16;;;;;;;14.35;6.35;;;;;;;18.23;68.39;96776.75;5110802;28;20043;-77
2023/10/21 00:26:47;;;;;;;16.33;6.65;;;;;;;18.20;68.61;96784.34;5109917;28;20044;-77
2023/10/21 00:29:14;;;;;;;18.60;7.47;;;;;;;18.14;68.84;96763.69;5110359;28;20199;-77
2023/10/21 00:31:43;;;;;;;16.77;6.13;;;;;;;17.69;68.69;96711.38;5110594;28;20064;-78
2023/10/21 00:34:09;;;;;;;17.00;6.75;;;;;;;18.12;68.95;96763.03;5109193;28;20050;-78
2023/10/21 00:36:36;;;;;;;14.55;5.53;;;;;;;18.12;69.07;96763.03;5109000;28;20047;-78
2023/10/21 00:39:03;;;;;;;11.15;5.15;;;;;;;18.11;69.45;96764.91;5109154;28;20040;-77
2023/10/21 00:41:30;;;;;;;12.90;5.60;;;;;;;18.13;70.13;96748.63;5108951;28;20044;-77
2023/10/21 00:43:57;;;;;;;14.45;6.25;;;;;;;16.36;69.50;96445.22;5109207;28;20040;-78
2023/10/21 00:46:26;;;;;;;14.35;5.50;;;;;;;17.62;69.69;96621.09;5109895;28;20322;-78
2023/10/21 00:48:54;;;;;;;16.35;6.00;;;;;;;18.09;70.16;96723.22;5109126;28;20105;-77
2023/10/21 00:51:21;;;;;;;16.10;6.65;;;;;;;18.08;70.01;96741.16;5108628;28;20058;-77
2023/10/21 00:53:49;;;;;;;12.82;5.40;;;;;;;18.09;70.27;96763.44;5110000;28;20047;-77
2023/10/21 00:56:16;;;;;;;14.02;5.97;;;;;;;18.11;69.84;96799.75;5109260;28;20303;-77
2023/10/21 00:58:42;;;;;;;16.63;5.50;;;;;;;18.11;70.21;96802.41;5110075;28;20055;-77
2023/10/21 01:01:10;;;;;;;22.60;5.88;;;;;;;18.12;70.07;96796.03;5110911;28;20052;-76
2023/10/21 01:03:38;;;;;;;16.00;6.00;;;;;;;18.10;70.32;96814.16;5109566;28;20056;-76
2023/10/21 01:06:07;;;;;;;13.02;4.75;;;;;;;18.09;70.40;96799.09;5110452;28;20102;-76
2023/10/21 01:08:41;;;;;;;15.20;6.10;;;;;;;18.08;70.43;96784.03;5109817;28;20036;-76
2023/10/21 01:11:08;;;;;;;11.40;5.53;;;;;;;18.07;70.46;96786.91;5109476;28;20093;-76
2023/10/21 01:13:34;;;;;;;16.00;5.03;;;;;;;17.74;70.04;96749.94;5110349;28;20082;-77
2023/10/21 01:16:01;;;;;;;10.48;5.07;;;;;;;18.06;69.86;96812.06;5110012;28;20047;-75
2023/10/21 01:18:30;;;;;;;8.80;5.45;;;;;;;18.01;69.10;96819.84;5109804;28;20048;-75
2023/10/21 01:20:56;;;;;;;15.32;5.68;;;;;;;17.99;69.36;96817.38;5109792;28;20239;-76
2023/10/21 01:23:25;;;;;;;11.10;4.82;;;;;;;17.73;69.50;96767.03;5110527;28;20044;-76
2023/10/21 01:25:52;;;;;;;11.20;5.15;;;;;;;17.96;68.55;96815.06;5110458;28;20129;-75
2023/10/21 01:28:18;;;;;;;11.02;5.38;;;;;;;17.90;68.38;96826.56;5109601;28;20040;-77
2023/10/21 01:30:45;;;;;;;6.03;3.92;;;;;;;17.86;67.27;96827.97;5108933;28;20047;-76
2023/10/21 01:33:12;;;;;;;8.73;4.20;;;;;;;17.42;67.83;96791.41;5109230;28;20052;-76
2023/10/21 01:35:38;;;;;;;8.00;4.38;;;;;;;17.35;65.70;96774.47;5109367;28;20278;-75
2023/10/21 01:38:05;;;;;;;7.40;4.15;;;;;;;17.70;65.33;96834.38;5108888;28;20287;-74
2023/10/21 01:40:33;;;;;;;5.03;3.97;;;;;;;17.70;65.28;96825.53;5108693;28;20296;-75
2023/10/21 01:43:00;;;;;;;5.65;4.30;;;;;;;17.61;64.65;96824.81;5108699;28;20048;-74
2023/10/21 01:45:26;;;;;;;6.32;3.88;;;;;;;16.54;64.39;96668.50;5107590;28;20040;-75
2023/10/21 01:47:53;;;;;;;5.18;4.22;;;;;;;17.55;63.58;96855.00;5108777;28;20093;-75
2023/10/21 01:50:20;;;;;;;4.78;3.95;;;;;;;17.52;63.62;96850.84;5107785;28;20155;-75
2023/10/21 01:52:47;;;;;;;5.70;4.40;;;;;;;17.52;65.18;96842.81;5107722;28;20043;-75
2023/10/21 01:55:14;;;;;;;5.18;4.35;;;;;;;17.44;63.87;96844.78;5108251;28;20059;-75
2023/10/21 01:57:42;;;;;;;6.25;4.03;;;;;;;17.46;64.97;96850.78;5109296;28;20040;-74
2023/10/21 02:00:10;;;;;;;6.38;3.78;;;;;;;17.46;64.70;96845.41;5108275;28;20040;-75
2023/10/21 02:02:37;;;;;;;5.20;4.13;;;;;;;17.47;65.46;96847.91;5108321;28;20054;-75
2023/10/21 02:05:06;;;;;;;5.28;4.28;;;;;;;17.45;65.41;96838.41;5108612;28;20048;-74
2023/10/21 02:07:32;;;;;;;5.25;4.30;;;;;;;17.47;66.14;96828.34;5108400;28;20203;-75
2023/10/21 02:09:59;;;;;;;5.40;4.57;;;;;;;17.46;65.58;96834.72;5107524;28;20044;-74
2023/10/21 02:12:26;;;;;;;5.55;3.90;;;;;;;17.44;65.26;96850.97;5108086;28;20089;-74
2023/10/21 02:14:54;;;;;;;7.25;4.78;;;;;;;17.42;65.34;96879.78;5108003;28;20040;-74
2023/10/21 02:17:21;;;;;;;4.45;3.85;;;;;;;17.39;65.66;96898.88;5107998;28;20044;-74
2023/10/21 02:19:48;;;;;;;6.63;5.00;;;;;;;17.33;64.33;96896.97;5106810;28;20106;-74
2023/10/21 02:22:14;;;;;;;5.00;4.15;;;;;;;17.30;64.99;96895.50;5106837;28;20350;-74
2023/10/21 02:24:41;;;;;;;4.18;3.70;;;;;;;17.30;65.12;96892.81;5107555;28;20299;-75
2023/10/21 02:27:09;;;;;;;5.07;4.57;;;;;;;17.30;65.33;96894.66;5107911;28;20055;-75
2023/10/21 02:29:37;;;;;;;5.60;3.95;;;;;;;17.27;65.28;96909.25;5107801;28;20044;-74
2023/10/21 02:32:06;;;;;;;5.57;4.97;;;;;;;17.29;65.35;96923.28;5107478;28;20289;-75
2023/10/21 02:34:33;;;;;;;6.57;5.05;;;;;;;17.27;65.26;96900.38;5107016;28;20079;-75
2023/10/21 02:36:59;;;;;;;4.95;4.45;;;;;;;16.92;65.40;96884.03;5107671;28;20050;-74
2023/10/21 02:39:26;;;;;;;4.70;4.20;;;;;;;16.85;65.50;96868.91;5106345;28;20043;-74
2023/10/21 02:41:53;;;;;;;6.50;4.30;;;;;;;17.22;66.04;96933.06;5107099;28;20048;-74
2023/10/21 02:44:20;;;;;;;7.07;4.47;;;;;;;17.12;64.85;96943.19;5106817;28;20115;-75
2023/10/21 02:46:48;;;;;;;6.68;4.70;;;;;;;17.00;65.51;96948.16;5107014;28;20039;-75
2023/10/21 02:49:16;;;;;;;5.95;4.22;;;;;;;17.03;65.73;96944.28;5106206;28;20040;-75
2023/10/21 02:51:43;;;;;;;5.97;4.32;;;;;;;17.05;66.00;96952.94;5106766;28;20044;-75
2023/10/21 02:54:10;;;;;;;5.65;4.50;;;;;;;17.00;66.27;96948.16;5107007;28;20105;-74
2023/10/21 02:56:37;;;;;;;5.78;4.32;;;;;;;17.03;65.72;96940.78;5107371;28;20044;-75
2023/10/21 02:59:03;;;;;;;5.53;4.90;;;;;;;16.93;65.74;96946.38;5107127;28;20043;-74
2023/10/21 03:01:30;;;;;;;5.03;4.30;;;;;;;16.93;65.97;96962.44;5107151;28;20039;-75
2023/10/21 03:03:57;;;;;;;5.82;4.55;;;;;;;16.91;66.00;96959.94;5108181;28;20055;-74
2023/10/21 03:06:25;;;;;;;7.47;4.68;;;;;;;16.93;66.39;96965.13;5107847;28;20243;-75
2023/10/21 03:08:52;;;;;;;5.30;4.80;;;;;;;16.94;66.52;96969.44;5107638;28;20059;-74
2023/10/21 03:11:18;;;;;;;5.22;4.38;;;;;;;16.87;65.72;96987.25;5107762;28;20058;-75
2023/10/21 03:13:46;;;;;;;5.75;4.75;;;;;;;16.89;66.03;96996.75;5107822;28;20044;-75
2023/10/21 03:16:14;;;;;;;5.82;4.68;;;;;;;16.52;65.52;96953.94;5107785;28;20111;-74
2023/10/21 03:18:42;;;;;;;5.22;4.45;;;;;;;16.87;66.34;97004.13;5107829;28;20296;-75
2023/10/21 03:21:09;;;;;;;5.22;4.65;;;;;;;16.16;65.69;96882.38;5108401;28;20083;-74
2023/10/21 03:23:37;;;;;;;7.22;4.32;;;;;;;16.85;65.72;96997.28;5108210;28;20044;-75
2023/10/21 03:26:06;;;;;;;6.30;5.28;;;;;;;16.39;65.55;96918.94;5108874;28;20040;-74
2023/10/21 03:28:32;;;;;;;7.88;5.22;;;;;;;16.74;65.49;96981.69;5107604;28;20047;-75
2023/10/21 03:31:01;;;;;;;5.55;4.70;;;;;;;16.76;65.84;96979.66;5109113;28;20047;-74
2023/10/21 03:33:29;;;;;;;6.53;5.03;;;;;;;16.61;66.38;96982.25;5108731;28;20227;-75
2023/10/21 03:35:57;;;;;;;7.18;5.40;;;;;;;16.58;66.93;96990.63;5108421;28;20308;-76
2023/10/21 03:38:23;;;;;;;6.05;5.03;;;;;;;16.63;66.35;96993.59;5108401;28;20066;-76
2023/10/21 03:40:59;;;;;;;7.40;5.28;;;;;;;16.67;66.13;96998.44;5108361;28;20058;-76
2023/10/21 03:43:27;;;;;;;5.72;4.95;;;;;;;16.68;66.45;96993.94;5108481;28;20044;-76
2023/10/21 03:45:55;;;;;;;15.38;4.88;;;;;;;16.66;66.21;97004.81;5108288;28;20044;-76
2023/10/21 03:48:22;;;;;;;6.22;4.60;;;;;;;16.70;66.08;97004.44;5108302;28;20047;-76
2023/10/21 03:50:50;;;;;;;5.03;4.30;;;;;;;16.12;66.29;96934.53;5107698;28;20036;-74
2023/10/21 03:53:17;;;;;;;7.60;5.28;;;;;;;16.64;66.44;97027.34;5107385;28;20044;-74
2023/10/21 03:55:44;;;;;;;5.70;4.38;;;;;;;16.59;66.82;97040.44;5107860;28;20040;-74
2023/10/21 03:58:13;;;;;;;5.15;4.35;;;;;;;16.60;66.55;97042.94;5106704;28;20040;-74
2023/10/21 04:00:40;;;;;;;5.72;5.07;;;;;;;16.50;66.30;97031.63;5107641;28;20051;-74
2023/10/21 04:03:07;;;;;;;5.57;4.82;;;;;;;15.79;66.56;96936.56;5107250;28;20055;-74
2023/10/21 04:05:35;;;;;;;6.00;5.40;;;;;;;16.41;66.92;97026.53;5107161;28;20085;-74
2023/10/21 04:08:04;;;;;;;6.45;5.47;;;;;;;16.34;67.02;97018.38;5108031;28;20181;-75
2023/10/21 04:10:31;;;;;;;6.25;5.55;;;;;;;16.24;66.62;97037.31;5107509;28;20044;-75
2023/10/21 04:12:58;;;;;;;5.57;4.55;;;;;;;16.26;67.88;97051.34;5107508;28;20036;-74
2023/10/21 04:15:27;;;;;;;5.22;4.72;;;;;;;16.34;67.39;97064.66;5106822;28;20048;-75
2023/10/21 04:17:54;;;;;;;7.57;4.70;;;;;;;16.40;67.60;97081.00;5107130;28;20299;-75
2023/10/21 04:20:21;;;;;;;5.97;5.22;;;;;;;16.36;67.77;97092.03;5107223;28;20101;-75
2023/10/21 04:22:48;;;;;;;6.78;5.40;;;;;;;16.19;67.25;97084.28;5106672;28;20052;-74
2023/10/21 04:25:15;;;;;;;7.45;4.70;;;;;;;15.87;67.48;97047.88;5107928;28;20040;-75
2023/10/21 04:27:42;;;;;;;8.20;5.25;;;;;;;16.19;68.07;97103.81;5107521;28;20304;-74
2023/10/21 04:30:09;;;;;;;5.45;4.63;;;;;;;16.13;67.67;97109.88;5107718;28;20052;-74
2023/10/21 04:32:37;;;;;;;5.35;4.35;;;;;;;15.97;67.83;97080.53;5107295;28;20280;-75
2023/10/21 04:35:05;;;;;;;5.78;4.93;;;;;;;16.23;67.55;97098.97;5106978;28;20032;-75
2023/10/21 04:37:32;;;;;;;6.50;5.15;;;;;;;16.30;67.77;97090.06;5106840;28;20044;-74
2023/10/21 04:39:58;;;;;;;10.70;5.45;;;;;;;16.33;67.18;97116.44;5108233;28;20048;-74
2023/10/21 04:42:26;;;;;;;4.35;3.95;;;;;;;16.28;67.69;97134.84;5110920;28;20040;-75
2023/10/21 04:44:52;;;;;;;5.43;4.68;;;;;;;16.30;67.34;97132.00;5110815;28;20039;-75
2023/10/21 04:47:19;;;;;;;5.70;4.78;;;;;;;16.30;67.97;97132.84;5111177;28;20101;-74
2023/10/21 04:49:48;;;;;;;6.50;5.00;;;;;;;16.31;67.04;97144.38;5110842;28;20044;-75
2023/10/21 04:52:15;;;;;;;6.30;4.70;;;;;;;16.28;67.56;97166.91;5110665;28;20085;-74
2023/10/21 04:54:42;;;;;;;5.53;4.68;;;;;;;16.32;67.52;97159.38;5110955;28;20067;-74
2023/10/21 04:57:10;;;;;;;5.63;4.43;;;;;;;16.33;67.15;97169.91;5110554;28;20036;-74
2023/10/21 04:59:38;;;;;;;5.75;4.85;;;;;;;16.31;67.74;97171.09;5109773;28;20040;-75
2023/10/21 05:02:05;;;;;;;7.45;5.03;;;;;;;16.28;68.14;97174.09;5109568;28;20197;-75
2023/10/21 05:04:32;;;;;;;5.10;4.45;;;;;;;16.33;67.24;97185.94;5109562;28;20066;-75
2023/10/21 05:07:00;;;;;;;5.55;4.55;;;;;;;16.32;67.54;97194.13;5110164;28;20052;-75
2023/10/21 05:09:27;;;;;;;5.93;4.30;;;;;;;16.36;67.01;97190.13;5110324;28;20055;-75
2023/10/21 05:11:54;;;;;;;6.32;3.92;;;;;;;16.35;67.43;97208.00;5109067;28;20165;-75
2023/10/21 05:14:20;;;;;;;4.80;4.20;;;;;;;16.35;67.00;97213.34;5109385;28;20115;-74
2023/10/21 05:16:47;;;;;;;5.03;4.10;;;;;;;16.34;67.29;97224.19;5111318;28;20089;-75
2023/10/21 05:19:14;;;;;;;5.15;3.95;;;;;;;16.34;66.97;97225.03;5109910;28;20052;-75
2023/10/21 05:21:40;;;;;;;5.38;4.32;;;;;;;16.34;67.35;97219.69;5110356;28;20050;-74
2023/10/21 05:24:09;;;;;;;4.63;4.20;;;;;;;16.32;67.31;97223.53;5110640;28;20100;-74
2023/10/21 05:26:36;;;;;;;5.50;4.60;;;;;;;16.34;67.05;97232.22;5110143;28;20040;-74
2023/10/21 05:29:02;;;;;;;5.10;4.18;;;;;;;16.03;67.38;97200.06;5110339;28;20036;-74
2023/10/21 05:31:29;;;;;;;4.95;4.45;;;;;;;16.32;67.32;97251.09;5109421;28;20067;-75
2023/10/21 05:33:57;;;;;;;6.75;4.65;;;;;;;16.29;67.20;97262.13;5110257;28;20062;-75
2023/10/21 05:36:24;;;;;;;5.35;4.85;;;;;;;16.30;66.62;97258.47;5110130;28;20036;-75
2023/10/21 05:38:51;;;;;;;6.82;4.93;;;;;;;16.31;66.79;97254.78;5109994;28;20040;-75
2023/10/21 05:41:20;;;;;;;6.50;4.93;;;;;;;16.33;66.79;97263.47;5108906;28;20119;-75
2023/10/21 05:43:47;;;;;;;5.90;4.55;;;;;;;16.31;66.61;97262.81;5109608;28;20044;-74
2023/10/21 05:46:13;;;;;;;6.60;4.88;;;;;;;16.27;66.77;97261.47;5110233;28;20058;-75
2023/10/21 05:48:40;;;;;;;5.57;4.80;;;;;;;16.20;67.35;97271.19;5110353;28;20055;-74
2023/10/21 05:51:07;;;;;;;6.72;5.18;;;;;;;16.19;67.55;97268.69;5109778;28;20040;-74
2023/10/21 05:53:34;;;;;;;6.18;5.22;;;;;;;16.15;67.97;97272.69;5108792;28;20097;-75
2023/10/21 05:56:01;;;;;;;10.25;5.72;;;;;;;16.09;68.38;97278.72;5109395;28;20190;-75
2023/10/21 05:58:29;;;;;;;7.18;5.18;;;;;;;16.08;67.78;97275.22;5109692;28;20292;-75
2023/10/21 06:00:56;;;;;;;5.97;4.95;;;;;;;16.07;67.67;97278.88;5109449;28;20036;-75
2023/10/21 06:03:23;;;;;;;6.68;5.18;;;;;;;15.65;68.33;97213.16;5108373;28;20119;-76
2023/10/21 06:05:50;;;;;;;5.93;5.32;;;;;;;16.08;68.33;97298.41;5110155;28;20062;-75
2023/10/21 06:08:17;;;;;;;5.90;4.75;;;;;;;16.10;68.66;97305.28;5109745;28;20040;-75
2023/10/21 06:10:44;;;;;;;5.28;4.78;;;;;;;16.14;67.56;97297.75;5109664;28;20052;-75
2023/10/21 06:13:11;;;;;;;7.15;4.72;;;;;;;16.13;67.63;97304.09;5109093;28;20066;-75
2023/10/21 06:15:40;;;;;;;5.03;4.35;;;;;;;16.14;67.64;97308.44;5109108;28;20318;-76
2023/10/21 06:18:07;;;;;;;4.78;4.18;;;;;;;16.12;67.53;97303.25;5109724;28;20043;-75
2023/10/21 06:20:34;;;;;;;4.75;4.05;;;;;;;16.12;68.15;97300.59;5109654;28;20071;-76
2023/10/21 06:23:01;;;;;;;7.32;4.38;;;;;;;16.11;67.96;97316.78;5108741;28;20040;-75
2023/10/21 06:25:29;;;;;;;5.43;4.35;;;;;;;16.09;67.62;97310.78;5108716;28;20246;-75
2023/10/21 06:27:56;;;;;;;5.70;4.10;;;;;;;16.12;67.99;97323.81;5108480;28;20044;-75
2023/10/21 06:30:22;;;;;;;6.15;4.88;;;;;;;16.12;67.59;97343.34;5109320;28;20040;-76
2023/10/21 06:32:51;;;;;;;5.90;4.43;;;;;;;16.12;67.53;97361.22;5108242;28;20040;-75
2023/10/21 06:35:17;;;;;;;5.88;4.90;;;;;;;13.38;67.20;96920.38;5108683;28;20047;-76
2023/10/21 06:37:44;;;;;;;5.70;4.28;;;;;;;16.12;67.42;97367.41;5109123;28;20043;-75
2023/10/21 06:40:11;;;;;;;6.30;4.68;;;;;;;16.12;67.77;97363.88;5107941;28;20036;-74
2023/10/21 06:42:38;;;;;;;5.80;4.57;;;;;;;16.02;67.49;97372.91;5108571;28;20089;-75
2023/10/21 06:45:06;;;;;;;6.70;4.25;;;;;;;16.03;68.72;97369.22;5107015;28;20048;-75
2023/10/21 06:47:34;;;;;;;6.28;4.35;;;;;;;15.70;68.84;97319.47;5108483;28;20115;-75
2023/10/21 06:50:02;;;;;;;7.90;4.60;;;;;;;16.06;68.63;97386.78;5109441;28;20126;-75
2023/10/21 06:52:30;;;;;;;7.65;5.63;;;;;;;16.05;68.53;97398.47;5109328;28;20040;-75
2023/10/21 06:54:57;;;;;;;5.30;4.60;;;;;;;16.07;68.16;97399.13;5108292;28;20078;-75
2023/10/21 06:57:24;;;;;;;5.88;4.65;;;;;;;16.09;68.23;97390.94;5109064;28;20048;-75
2023/10/21 06:59:52;;;;;;;5.97;4.28;;;;;;;16.08;68.41;97408.81;5108306;28;20266;-75
2023/10/21 07:02:19;;;;;;;6.97;4.70;;;;;;;16.04;68.76;97426.19;5108287;28;20052;-75
2023/10/21 07:04:46;;;;;;;5.35;4.55;;;;;;;16.04;68.62;97436.88;5109225;28;20047;-75
2023/10/21 07:07:15;;;;;;;5.00;4.05;;;;;;;16.04;68.18;97448.38;5108083;28;20051;-75
2023/10/21 07:09:42;;;;;;;7.80;4.82;;;;;;;15.83;68.41;97449.84;5108974;28;20032;-75
2023/10/21 07:12:11;;;;;;;7.20;5.03;;;;;;;15.81;68.03;97459.88;5108993;28;20055;-75
2023/10/21 07:14:37;;;;;;;6.20;5.18;;;;;;;15.91;68.96;97452.53;5107935;28;20040;-75
2023/10/21 07:17:05;;;;;;;5.07;4.30;;;;;;;15.95;68.26;97457.38;5108881;28;20075;-75
2023/10/21 07:19:32;;;;;;;8.05;5.15;;;;;;;16.00;68.31;97454.22;5107131;28;20111;-74
2023/10/21 07:21:59;;;;;;;6.18;5.20;;;;;;;16.03;68.22;97470.75;5108323;28;20085;-76
2023/10/21 07:24:27;;;;;;;5.90;5.10;;;;;;;16.03;68.73;97478.78;5108654;28;20234;-75
2023/10/21 07:26:54;;;;;;;7.28;4.82;;;;;;;16.08;68.60;97486.31;5107755;28;20113;-75
2023/10/21 07:29:22;;;;;;;15.43;5.55;;;;;;;16.16;68.53;97480.13;5107743;28;20047;-75
2023/10/21 07:31:48;;;;;;;6.95;5.53;;;;;;;16.17;68.02;97493.34;5107798;28;20047;-75
2023/10/21 07:34:15;;;;;;;9.10;5.43;;;;;;;16.18;68.10;97496.84;5106816;28;20307;-75
2023/10/21 07:36:42;;;;;;;5.63;4.90;;;;;;;16.26;68.03;97491.50;5108360;28;20044;-75
2023/10/21 07:39:09;;;;;;;4.78;4.28;;;;;;;16.33;67.79;97493.34;5107651;28;20145;-76
2023/10/21 07:41:37;;;;;;;5.45;4.25;;;;;;;16.39;67.54;97501.72;5108395;28;20044;-75
2023/10/21 07:44:05;;;;;;;4.85;4.05;;;;;;;16.42;67.44;97496.88;5108265;28;20036;-76
2023/10/21 07:46:31;;;;;;;5.35;3.67;;;;;;;16.48;67.32;97498.88;5107865;28;20039;-75
2023/10/21 07:48:58;;;;;;;6.72;3.75;;;;;;;16.55;67.04;97515.09;5108294;28;20052;-75
2023/10/21 07:51:25;;;;;;;4.78;3.40;;;;;;;16.65;66.76;97513.09;5107549;28;20077;-75
2023/10/21 07:53:51;;;;;;;6.40;3.95;;;;;;;16.70;66.60;97509.94;5108339;28;20036;-75
2023/10/21 07:56:18;;;;;;;4.70;3.75;;;;;;;16.73;66.12;97512.28;5107176;28;20066;-75
2023/10/21 07:58:48;;;;;;;5.13;3.80;;;;;;;16.82;65.90;97519.31;5108973;28;20040;-75
2023/10/21 08:01:15;;;;;;;5.05;3.80;;;;;;;16.16;64.92;97398.13;5108256;28;20055;-75
2023/10/21 08:03:42;;;;;;;4.82;3.97;;;;;;;17.08;65.10;97519.94;5107877;28;20063;-75
2023/10/21 08:06:09;;;;;;;5.03;4.32;;;;;;;17.24;63.35;97514.59;5108365;28;20288;-75
2023/10/21 08:08:36;;;;;;;5.55;3.78;;;;;;;17.44;63.28;97517.72;5108478;28;20040;-76
2023/10/21 08:11:03;;;;;;;5.20;3.83;;;;;;;17.49;62.27;97523.38;5107141;28;20036;-76
2023/10/21 08:13:30;;;;;;;4.43;3.78;;;;;;;17.60;61.62;97535.56;5108183;28;20036;-76
2023/10/21 08:15:59;;;;;;;5.45;4.35;;;;;;;17.77;61.33;97536.38;5111083;28;20078;-76
2023/10/21 08:18:26;;;;;;;5.07;3.45;;;;;;;17.91;60.33;97549.88;5109770;28;20047;-77
2023/10/21 08:20:53;;;;;;;4.90;4.30;;;;;;;17.86;62.89;97562.13;5109793;28;20040;-76
2023/10/21 08:23:20;;;;;;;4.90;3.88;;;;;;;17.90;61.62;97568.81;5110364;28;20292;-76
2023/10/21 08:25:47;;;;;;;5.13;3.88;;;;;;;18.00;60.90;97563.25;5110143;28;20066;-76
2023/10/21 08:28:13;;;;;;;5.05;3.78;;;;;;;18.08;62.07;97557.84;5111284;28;20043;-76
2023/10/21 08:30:40;;;;;;;4.05;3.30;;;;;;;18.15;61.20;97545.41;5110590;28;20043;-76
2023/10/21 08:33:08;;;;;;;5.13;4.00;;;;;;;18.28;58.62;97538.44;5110080;28;20254;-75
2023/10/21 08:35:35;;;;;;;5.05;3.75;;;;;;;18.33;59.94;97539.78;5110939;28;20044;-75
2023/10/21 08:38:01;;;;;;;5.15;3.85;;;;;;;18.52;58.86;97536.66;5111454;28;20051;-76
2023/10/21 08:40:27;;;;;;;5.20;3.58;;;;;;;18.43;58.46;97516.22;5112221;28;20111;-77
2023/10/21 08:42:55;;;;;;;5.03;4.22;;;;;;;18.60;58.08;97544.66;5110927;28;20040;-76
2023/10/21 08:45:23;;;;;;;4.47;3.90;;;;;;;18.22;57.68;97474.81;5111294;28;20069;-76
2023/10/21 08:47:52;;;;;;;4.65;3.63;;;;;;;18.36;57.21;97509.91;5110981;28;20234;-76
2023/10/21 08:50:20;;;;;;;4.80;3.80;;;;;;;18.61;58.13;97556.22;5112068;28;20044;-76
2023/10/21 08:52:50;;;;;;;5.15;3.47;;;;;;;18.65;56.62;97560.19;5111345;28;20047;-76
2023/10/21 08:55:18;;;;;;;4.85;3.63;;;;;;;18.15;58.42;97511.38;5094233;28;20067;-76
2023/10/21 08:57:45;;;;;;;4.57;3.55;;;;;;;18.54;59.02;97581.06;5111690;28;20093;-76
2023/10/21 09:00:13;;;;;;;5.85;4.07;;;;;;;18.59;58.07;97597.47;5110131;28;20052;-76
2023/10/21 09:02:40;;;;;;;7.35;3.22;;;;;;;18.55;59.52;97606.88;5110716;28;20127;-76
2023/10/21 09:05:11;;;;;;;4.68;3.20;;;;;;;18.52;59.20;97607.22;5111079;28;20097;-76
2023/10/21 09:07:50;;;;;;;5.80;4.00;;;;;;;17.35;58.93;97426.88;5111566;28;20040;-76
2023/10/21 09:10:17;;;;;;;5.20;4.18;;;;;;;18.47;57.94;97606.06;5110592;28;20067;-76
2023/10/21 09:12:45;;;;;;;6.00;4.93;;;;;;;18.49;58.03;97598.69;5110216;28;20195;-76
2023/10/21 09:15:12;;;;;;;5.07;3.85;;;;;;;18.49;57.61;97609.41;5110859;28;20108;-76
2023/10/21 09:17:40;;;;;;;5.60;4.43;;;;;;;18.53;57.95;97621.47;5111191;28;20047;-75
2023/10/21 09:20:09;;;;;;;5.63;4.00;;;;;;;18.50;59.80;97628.00;5093529;28;20036;-76
2023/10/21 09:22:36;;;;;;;7.53;5.15;;;;;;;18.34;58.58;97577.13;5111117;28;20102;-76
2023/10/21 09:25:14;;;;;;;7.07;4.55;;;;;;;18.62;58.39;97620.41;5110122;28;20063;-76
2023/10/21 09:27:41;;;;;;;4.68;3.85;;;;;;;18.72;58.21;97628.25;5111072;28;20040;-76
2023/10/21 09:30:14;;;;;;;5.45;4.20;;;;;;;16.93;57.89;97328.97;5110980;28;20059;-76
2023/10/21 09:32:42;;;;;;;4.97;3.95;;;;;;;18.88;57.65;97638.88;5109724;28;20060;-76
2023/10/21 09:35:18;;;;;;;4.93;4.13;;;;;;;18.91;58.23;97630.47;5092952;28;20330;-76
2023/10/21 09:37:46;;;;;;;4.78;3.67;;;;;;;18.99;57.81;97616.13;5110703;28;20035;-75
2023/10/21 09:40:14;;;;;;;4.95;3.70;;;;;;;19.17;57.69;97606.75;5110762;28;20078;-76
2023/10/21 09:42:41;;;;;;;4.30;3.55;;;;;;;18.39;56.92;97488.94;5110670;28;20044;-76
2023/10/21 09:45:09;;;;;;;5.05;3.45;;;;;;;18.25;57.20;97453.00;5110547;28;20060;-77
2023/10/21 09:47:42;;;;;;;4.95;3.95;;;;;;;19.26;56.48;97628.16;5109866;28;20071;-76
2023/10/21 09:50:13;;;;;;;5.38;3.75;;;;;;;19.38;57.11;97641.00;5110782;28;20054;-75
2023/10/21 09:52:55;;;;;;;4.95;4.00;;;;;;;19.31;57.48;97647.25;5110721;28;20067;-75
2023/10/21 09:55:28;;;;;;;6.22;3.95;;;;;;;19.44;56.59;97648.34;5109666;28;20304;-75
2023/10/21 09:57:55;;;;;;;5.60;3.92;;;;;;;19.52;57.38;97632.16;5110502;28;20113;-74
2023/10/21 10:00:24;;;;;;;4.97;3.90;;;;;;;19.44;56.37;97591.94;5109868;28;20039;-75
2023/10/21 10:02:54;;;;;;;5.07;4.30;;;;;;;19.78;55.38;97628.19;5109419;28;20055;-76
2023/10/21 10:05:21;;;;;;;4.43;4.00;;;;;;;19.85;55.23;97629.16;5109218;28;20052;-76
2023/10/21 10:07:49;;;;;;;5.05;4.25;;;;;;;19.78;56.24;97631.72;5109921;28;20043;-76
2023/10/21 10:10:19;;;;;;;6.20;4.20;;;;;;;19.86;54.38;97628.16;5109120;28;20316;-76
2023/10/21 10:12:52;;;;;;;5.70;4.40;;;;;;;18.92;53.35;97447.75;5110960;28;20055;-76
2023/10/21 10:15:31;;;;;;;5.72;3.80;;;;;;;20.22;54.13;97635.47;5110476;28;20036;-76
2023/10/21 10:17:59;;;;;;;4.60;3.58;;;;;;;20.30;54.91;97628.16;5109921;28;20043;-76
2023/10/21 10:20:27;;;;;;;4.57;3.65;;;;;;;20.30;54.10;97630.00;5109265;28;20085;-76
2023/10/21 10:23:02;;;;;;;4.78;4.07;;;;;;;20.36;53.06;97624.72;5108498;28;20224;-76
2023/10/21 10:25:33;;;;;;;5.68;3.92;;;;;;;19.55;52.39;97469.75;5109843;28;20052;-76
2023/10/21 10:28:07;;;;;;;4.63;3.70;;;;;;;20.54;52.94;97613.53;5108642;28;20324;-76
2023/10/21 10:30:35;;;;;;;5.20;4.30;;;;;;;20.58;52.43;97611.31;5108344;28;20044;-76
2023/10/21 10:33:07;;;;;;;5.95;3.60;;;;;;;20.53;51.71;97582.28;5109681;28;20102;-75
2023/10/21 10:35:37;;;;;;;5.45;3.28;;;;;;;20.80;52.93;97602.22;5108011;28;20044;-76
2023/10/21 10:38:17;;;;;;;6.78;4.13;;;;;;;20.91;52.40;97603.56;5108820;28;20112;-76
2023/10/21 10:40:45;;;;;;;5.28;4.05;;;;;;;21.11;50.82;97610.00;5108140;28;20146;-76
2023/10/21 10:43:14;;;;;;;5.40;4.35;;;;;;;21.18;50.53;97613.59;5107923;28;20296;-76
2023/10/21 10:45:41;;;;;;;5.65;3.97;;;;;;;21.35;49.95;97616.84;5108049;28;20107;-76
2023/10/21 10:48:08;;;;;;;4.35;3.55;;;;;;;21.48;49.43;97613.44;5107591;28;20200;-76
2023/10/21 10:50:37;;;;;;;4.05;3.10;;;;;;;21.55;49.61;97614.31;5106792;28;20044;-76
2023/10/21 10:53:15;;;;;;;5.05;3.72;;;;;;;21.60;50.36;97614.56;5107418;28;20248;-76
2023/10/21 10:55:44;;;;;;;4.68;3.90;;;;;;;21.63;49.81;97611.47;5107849;28;20097;-76
2023/10/21 10:58:13;;;;;;;5.03;3.10;;;;;;;20.13;49.29;97361.25;5106692;28;20295;-76
2023/10/21 11:00:40;;;;;;;4.30;3.17;;;;;;;21.74;49.41;97614.44;5107606;28;20048;-76
2023/10/21 11:03:08;;;;;;;5.57;3.40;;;;;;;21.74;50.49;97614.44;5106117;28;20055;-76
2023/10/21 11:05:37;;;;;;;5.60;3.88;;;;;;;21.81;49.11;97608.31;5108153;28;20108;-76
2023/10/21 11:08:07;;;;;;;6.55;3.88;;;;;;;21.87;49.60;97608.34;5106823;28;20048;-76
2023/10/21 11:10:35;;;;;;;5.68;3.95;;;;;;;21.96;48.44;97614.41;5107298;28;20040;-76
2023/10/21 11:13:05;;;;;;;7.43;3.95;;;;;;;22.01;48.89;97625.44;5106549;28;20192;-76
2023/10/21 11:15:40;;;;;;;5.53;3.58;;;;;;;22.10;47.59;97614.28;5106398;28;20036;-76
2023/10/21 11:18:07;;;;;;;6.60;3.53;;;;;;;22.12;48.04;97616.78;5107201;28;20054;-76
2023/10/21 11:20:34;;;;;;;4.50;3.45;;;;;;;22.20;47.11;97622.00;5106391;28;20044;-76
2023/10/21 11:23:10;;;;;;;6.47;3.33;;;;;;;21.89;46.96;97565.81;5106134;28;20040;-76
2023/10/21 11:25:37;;;;;;;6.60;3.83;;;;;;;22.44;47.19;97626.09;5107107;28;20059;-76
2023/10/21 11:28:05;;;;;;;6.28;3.88;;;;;;;22.48;46.21;97627.34;5106836;28;20300;-76
2023/10/21 11:30:34;;;;;;;6.43;4.22;;;;;;;22.32;46.31;97592.59;5106435;28;20056;-76
2023/10/21 11:33:09;;;;;;;4.38;3.83;;;;;;;22.59;45.96;97618.69;5105643;28;20296;-76
2023/10/21 11:35:38;;;;;;;4.45;3.35;;;;;;;22.68;47.33;97619.34;5104569;28;20207;-77